createdAt,value
2024-03-16T00:04:44.483Z,26.10
2024-03-16T00:09:46.534Z,25.90
2024-03-16T00:14:51.753Z,26.50
2024-03-16T00:19:53.750Z,27.80
2024-03-16T00:24:55.643Z,23.80
2024-03-16T00:30:57.414Z,28.10
2024-03-16T00:36:19.405Z,25.20
2024-03-16T00:41:21.528Z,29.90
2024-03-16T00:46:23.599Z,28.60
2024-03-16T00:51:25.502Z,26.90
2024-03-16T00:56:28.209Z,27.50
2024-03-16T01:01:35.299Z,29.50
2024-03-16T01:07:37.074Z,28.60
2024-03-16T01:12:59.351Z,30.90
2024-03-16T01:19:01.276Z,28.60
2024-03-16T01:25:23.032Z,30.80
2024-03-16T01:31:44.654Z,35.30
2024-03-16T01:38:06.306Z,30.90
2024-03-16T01:44:27.948Z,30.00
2024-03-16T01:50:45.006Z,27.30
2024-03-16T01:55:46.815Z,27.40
2024-03-16T02:00:49.391Z,29.90
2024-03-16T02:05:51.566Z,29.40
2024-03-16T02:11:13.468Z,27.40
2024-03-16T02:16:15.890Z,29.10
2024-03-16T02:21:18.013Z,27.20
2024-03-16T02:26:20.080Z,24.50
2024-03-16T02:32:21.804Z,23.20
2024-03-16T02:38:43.695Z,24.60
2024-03-16T02:45:05.285Z,27.50
2024-03-16T02:51:27.014Z,29.40
2024-03-16T02:57:48.964Z,25.20
2024-03-16T03:03:13.143Z,23.20
2024-03-16T03:08:15.185Z,24.80
2024-03-16T03:13:17.261Z,25.60
2024-03-16T03:18:20.593Z,24.70
2024-03-16T03:23:22.819Z,24.70
2024-03-16T03:28:24.910Z,23.70
2024-03-16T03:33:27.061Z,26.70
2024-03-16T03:38:29.432Z,25.20
2024-03-16T03:43:31.953Z,24.70
2024-03-16T03:48:37.725Z,24.30
2024-03-16T03:53:39.815Z,23.90
2024-03-16T03:58:41.926Z,25.90
2024-03-16T04:04:43.611Z,21.80
2024-03-16T04:11:09.521Z,23.70
2024-03-16T04:16:31.429Z,21.80
2024-03-16T04:22:33.352Z,22.80
2024-03-16T04:27:55.187Z,20.00
2024-03-16T04:32:57.205Z,25.90
2024-03-16T04:37:59.277Z,24.60
2024-03-16T04:43:01.425Z,25.90
2024-03-16T04:48:03.580Z,24.40
2024-03-16T04:53:05.722Z,23.70
2024-03-16T04:58:09.279Z,26.20
2024-03-16T05:03:11.442Z,27.40
2024-03-16T05:08:13.709Z,28.00
2024-03-16T05:14:15.413Z,25.10
2024-03-16T05:19:54.516Z,26.10
2024-03-16T05:24:56.848Z,25.60
2024-03-16T05:30:21.477Z,26.40
2024-03-16T05:35:51.010Z,29.00
2024-03-16T05:40:56.969Z,26.80
2024-03-16T05:46:58.718Z,28.20
2024-03-16T05:53:00.448Z,27.40
2024-03-16T05:59:03.131Z,30.90
2024-03-16T06:05:49.959Z,36.30
2024-03-16T06:12:21.149Z,25.90
2024-03-16T06:18:49.764Z,27.20
2024-03-16T06:31:14.105Z,27.40
2024-03-16T06:37:39.722Z,31.20
2024-03-16T06:44:14.559Z,31.60
2024-03-16T06:51:00.125Z,32.80
2024-03-16T06:57:18.355Z,27.10
2024-03-16T07:03:29.211Z,25.80
2024-03-16T07:10:11.626Z,24.00
2024-03-16T07:17:06.212Z,26.90
2024-03-16T07:23:31.494Z,23.40
2024-03-16T07:29:53.493Z,26.00
2024-03-16T07:36:36.166Z,26.50
2024-03-16T07:43:01.347Z,29.70
2024-03-16T07:49:23.012Z,26.50
2024-03-16T08:01:19.061Z,21.50
2024-03-16T08:06:47.112Z,24.30
2024-03-16T08:13:40.081Z,20.50
2024-03-16T08:20:05.978Z,20.90
2024-03-16T08:26:31.518Z,23.50
2024-03-16T08:32:54.485Z,21.60
2024-03-16T08:39:31.020Z,20.30
2024-03-16T08:45:02.767Z,19.60
2024-03-16T08:50:31.756Z,19.10
2024-03-16T08:55:45.848Z,18.00
2024-03-16T09:01:28.875Z,15.50
2024-03-16T09:07:46.224Z,17.50
2024-03-16T09:14:12.251Z,18.50
2024-03-16T09:20:01.033Z,19.30
2024-03-16T09:26:34.199Z,16.40
2024-03-16T09:33:21.151Z,16.80
2024-03-16T09:39:18.971Z,16.80
2024-03-16T09:45:09.428Z,10.40
2024-03-16T09:51:48.057Z,13.90
2024-03-16T09:58:15.816Z,14.50
2024-03-16T10:04:58.224Z,9.80
2024-03-16T10:10:14.128Z,7.50
2024-03-16T10:16:28.542Z,9.70
2024-03-16T10:21:53.799Z,11.10
2024-03-16T10:27:27.289Z,5.30
2024-03-16T10:33:28.052Z,11.10
2024-03-16T10:39:04.268Z,9.80
2024-03-16T10:45:00.518Z,10.00
2024-03-16T10:50:57.513Z,11.00
2024-03-16T10:56:59.797Z,12.40
2024-03-16T11:03:11.876Z,9.40
2024-03-16T11:08:46.565Z,7.00
2024-03-16T11:14:20.296Z,9.10
2024-03-16T11:21:05.572Z,10.60
2024-03-16T11:26:37.574Z,8.20
2024-03-16T11:31:58.889Z,6.70
2024-03-16T11:37:14.490Z,11.30
2024-03-16T11:42:18.022Z,5.40
2024-03-16T11:47:49.768Z,8.10
2024-03-16T11:53:30.118Z,6.30
2024-03-16T11:58:39.196Z,5.50
2024-03-16T12:05:11.004Z,9.10
2024-03-16T12:10:54.986Z,6.50
2024-03-16T12:16:40.758Z,8.10
2024-03-16T12:22:49.279Z,6.90
2024-03-16T12:28:36.563Z,9.60
2024-03-16T12:34:42.887Z,8.70
2024-03-16T12:41:24.860Z,11.80
2024-03-16T12:48:27.698Z,9.00
2024-03-16T12:55:02.124Z,7.60
2024-03-16T13:01:27.145Z,8.90
2024-03-16T13:08:04.165Z,12.80
2024-03-16T13:14:32.122Z,9.80
2024-03-16T13:19:54.238Z,10.90
2024-03-16T13:24:56.319Z,8.00
2024-03-16T13:29:59.086Z,7.60
2024-03-16T13:35:01.040Z,11.30
2024-03-16T13:40:04.242Z,6.20
2024-03-16T13:45:08.809Z,8.90
2024-03-16T13:50:11.042Z,9.00
2024-03-16T13:55:19.329Z,9.20
2024-03-16T14:00:21.694Z,11.30
2024-03-16T14:05:24.029Z,9.90
2024-03-16T14:10:26.086Z,20.10
2024-03-16T14:15:28.821Z,11.40
2024-03-16T14:20:32.444Z,7.50
2024-03-16T14:25:34.897Z,7.80
2024-03-16T14:30:37.126Z,8.80
2024-03-16T14:35:39.041Z,15.50
2024-03-16T14:40:40.942Z,6.40
2024-03-16T14:46:42.688Z,9.00
2024-03-16T14:53:04.377Z,12.80
2024-03-16T14:59:26.533Z,10.00
2024-03-16T15:05:48.250Z,11.00
2024-03-16T15:11:15.941Z,9.40
2024-03-16T15:17:17.682Z,15.10
2024-03-16T15:23:39.500Z,4.70
2024-03-16T15:30:01.092Z,9.50
2024-03-16T15:36:22.736Z,11.30
2024-03-16T15:42:44.520Z,6.90
2024-03-16T15:49:06.163Z,9.40
2024-03-16T15:55:27.862Z,10.00
2024-03-16T16:01:49.902Z,13.50
2024-03-16T16:07:35.444Z,14.10
2024-03-16T16:12:37.901Z,14.80
2024-03-16T16:17:40.631Z,12.70
2024-03-16T16:22:42.724Z,18.50
2024-03-16T16:27:44.838Z,12.10
2024-03-16T16:32:46.842Z,13.10
2024-03-16T16:37:48.822Z,19.00
2024-03-16T16:42:50.767Z,20.90
2024-03-16T16:47:52.880Z,27.40
2024-03-16T16:52:54.930Z,35.40
2024-03-16T16:57:57.099Z,31.40
2024-03-16T17:02:59.626Z,28.90
2024-03-16T17:08:02.121Z,16.90
2024-03-16T17:13:04.273Z,14.30
2024-03-16T17:18:06.440Z,13.90
2024-03-16T17:23:08.569Z,11.80
2024-03-16T17:28:10.708Z,10.80
2024-03-16T17:39:23.828Z,11.30
2024-03-16T17:44:29.452Z,8.60
2024-03-16T17:49:31.533Z,19.10
2024-03-16T17:55:33.242Z,13.90
2024-03-16T18:00:55.435Z,16.20
2024-03-16T18:05:57.675Z,15.70
2024-03-16T18:11:01.332Z,16.60
2024-03-16T18:16:04.866Z,17.70
2024-03-16T18:21:07.670Z,15.50
2024-03-16T18:26:12.873Z,18.00
2024-03-16T18:31:16.205Z,20.90
2024-03-16T18:36:20.151Z,20.80
2024-03-16T19:29:24.503Z,15.00
2024-03-16T19:35:47.016Z,14.10
2024-03-16T19:42:12.277Z,13.90
2024-03-16T19:48:09.389Z,12.70
2024-03-16T19:54:18.575Z,10.60
2024-03-16T20:00:40.753Z,6.50
2024-03-16T20:07:11.898Z,4.20
2024-03-16T20:13:43.593Z,5.80
2024-03-16T20:20:07.758Z,8.20
2024-03-16T20:26:33.125Z,4.80
2024-03-16T20:32:55.341Z,7.20
2024-03-16T20:39:20.015Z,7.30
2024-03-16T20:44:32.815Z,5.40
2024-03-16T20:50:26.473Z,9.80
2024-03-16T20:55:32.122Z,9.00
2024-03-16T21:01:02.719Z,9.60
2024-03-16T21:06:43.273Z,12.80
2024-03-16T21:13:40.146Z,9.70
2024-03-16T21:20:25.539Z,16.00
2024-03-16T21:26:50.175Z,11.80
2024-03-16T21:33:22.835Z,11.20
2024-03-16T21:39:23.333Z,10.60
2024-03-16T21:45:16.027Z,14.80
2024-03-16T21:51:39.173Z,12.20
2024-03-16T21:57:22.770Z,10.90
2024-03-16T22:03:09.033Z,9.90
2024-03-16T22:08:58.835Z,9.70
2024-03-16T22:15:13.972Z,10.60
2024-03-16T22:21:48.093Z,14.00
2024-03-16T22:27:49.678Z,16.00
2024-03-16T22:33:50.026Z,16.30
2024-03-16T22:40:11.679Z,9.50
2024-03-16T22:46:52.885Z,11.00
2024-03-16T22:53:44.496Z,8.20
2024-03-16T23:00:42.629Z,10.60
2024-03-16T23:07:46.457Z,9.10
2024-03-16T23:14:38.835Z,10.90
2024-03-16T23:21:32.323Z,11.70
2024-03-16T23:28:35.770Z,8.30
2024-03-16T23:35:39.184Z,5.50
2024-03-16T23:42:32.100Z,10.20
2024-03-16T23:49:26.470Z,9.40
2024-03-16T23:56:29.642Z,11.00
